Time;durP1;ratioP1;P1;durP2;ratioP2;P2;SDS_P1;SDS_P2;PMS_P1;PMS_P2;Temp;Humidity;BMP_temperature;BMP_pressure;BME280_temperature;BME280_humidity;BME280_pressure;Samples;Min_cycle;Max_cycle;Signal;HPM_P1;HPM_P2
2021/07/15 00:01:33;;;;;;;7.35;4.70;;;;;;;15.32;78.77;101082.69;4934608;29;20119;-75
2021/07/15 00:04:19;;;;;;;7.00;4.53;;;;;;;15.32;78.68;101082.69;4928027;29;20036;-75
2021/07/15 00:07:05;;;;;;;7.13;4.78;;;;;;;15.31;78.60;101086.66;4936349;29;20070;-75
2021/07/15 00:09:51;;;;;;;6.82;4.40;;;;;;;15.30;78.41;101083.03;4936281;29;20063;-75
2021/07/15 00:12:37;;;;;;;9.20;4.93;;;;;;;15.26;78.68;101078.34;4939601;29;20130;-75
2021/07/15 00:15:24;;;;;;;7.45;4.50;;;;;;;15.27;78.51;101083.66;4908980;29;20048;-75
2021/07/15 00:18:10;;;;;;;6.95;4.05;;;;;;;15.26;78.52;101090.38;4925560;29;20660;-76
2021/07/15 00:20:57;;;;;;;6.97;4.20;;;;;;;15.18;78.38;101091.94;4933233;29;20047;-75
2021/07/15 00:23:43;;;;;;;5.47;4.13;;;;;;;15.14;78.13;101084.47;4905101;29;20155;-75
2021/07/15 00:26:29;;;;;;;5.22;4.47;;;;;;;15.14;78.18;101092.88;4922709;29;20035;-76
2021/07/15 00:29:15;;;;;;;5.82;4.20;;;;;;;15.13;77.84;101094.03;4932140;29;20119;-75
2021/07/15 00:32:00;;;;;;;5.72;4.47;;;;;;;15.08;78.17;101088.53;4938701;29;20044;-77
2021/07/15 00:34:46;;;;;;;4.63;4.05;;;;;;;15.05;77.89;101089.16;4928504;29;20107;-75
2021/07/15 00:37:32;;;;;;;6.28;4.65;;;;;;;15.03;78.14;101097.00;4935782;29;20035;-75
2021/07/15 00:40:18;;;;;;;6.15;4.40;;;;;;;14.98;77.88;101101.56;4917502;29;20574;-75
2021/07/15 00:43:04;;;;;;;6.15;4.32;;;;;;;15.00;78.23;101092.03;4913418;29;20068;-75
2021/07/15 00:45:50;;;;;;;6.68;4.63;;;;;;;14.93;78.36;101090.50;4936413;29;20048;-75
2021/07/15 00:48:36;;;;;;;5.47;4.35;;;;;;;14.96;78.38;101095.47;4940211;28;20107;-75
2021/07/15 00:51:22;;;;;;;5.90;4.45;;;;;;;14.94;78.63;101092.13;4940325;29;20555;-75
2021/07/15 00:54:07;;;;;;;6.95;4.65;;;;;;;14.87;78.52;101093.69;4904692;29;20064;-75
2021/07/15 00:56:53;;;;;;;7.40;5.18;;;;;;;14.89;80.08;101088.63;4921397;29;20044;-75
2021/07/15 00:59:39;;;;;;;7.32;5.32;;;;;;;14.91;79.89;101084.38;4914813;29;20382;-75
2021/07/15 01:02:25;;;;;;;7.90;4.80;;;;;;;14.92;79.37;101077.63;4907901;29;20040;-75
2021/07/15 01:05:13;;;;;;;7.38;4.72;;;;;;;14.92;79.59;101080.44;4912588;29;20036;-75
2021/07/15 01:08:03;;;;;;;8.20;5.15;;;;;;;15.00;79.95;101078.06;4926837;29;20039;-75
2021/07/15 01:11:03;;;;;;;7.30;4.88;;;;;;;15.01;80.50;101074.13;4922409;29;20114;-76
2021/07/15 01:14:01;;;;;;;6.22;4.97;;;;;;;15.05;80.54;101066.78;4923100;29;20035;-76
2021/07/15 01:16:51;;;;;;;9.82;5.70;;;;;;;15.08;80.63;101074.53;4922672;29;20079;-75
2021/07/15 01:19:36;;;;;;;9.25;5.60;;;;;;;15.10;81.26;101072.25;4909260;29;20104;-75
2021/07/15 01:22:34;;;;;;;8.07;5.28;;;;;;;15.12;80.87;101067.16;4930894;29;20119;-75
2021/07/15 01:25:38;;;;;;;8.68;5.68;;;;;;;15.16;81.52;101073.81;4923307;28;20059;-75
2021/07/15 01:28:49;;;;;;;8.45;5.45;;;;;;;15.19;81.77;101059.19;4913567;29;20043;-75
2021/07/15 01:31:35;;;;;;;8.70;5.20;;;;;;;15.21;81.45;101065.31;4925611;29;20031;-75
2021/07/15 01:34:20;;;;;;;8.52;5.43;;;;;;;15.23;81.69;101065.00;4913625;29;20678;-75
2021/07/15 01:37:06;;;;;;;8.63;5.85;;;;;;;15.26;82.12;101064.38;4923785;29;20400;-75
2021/07/15 01:39:52;;;;;;;7.07;5.35;;;;;;;15.30;82.02;101069.03;4907070;29;20508;-76
2021/07/15 01:42:38;;;;;;;8.40;5.43;;;;;;;15.32;81.70;101065.91;4911060;29;20523;-76
2021/07/15 01:45:24;;;;;;;6.25;4.90;;;;;;;15.35;80.93;101060.53;4915037;29;20035;-76
2021/07/15 01:48:11;;;;;;;8.18;5.65;;;;;;;15.36;81.92;101066.97;4907601;29;20051;-76
2021/07/15 01:50:57;;;;;;;8.27;5.55;;;;;;;15.37;81.90;101063.81;4908193;29;20048;-76
2021/07/15 01:53:43;;;;;;;8.07;6.28;;;;;;;15.39;81.83;101060.72;4917280;29;20349;-77
2021/07/15 01:56:29;;;;;;;6.72;5.53;;;;;;;15.41;81.80;101080.84;4925792;29;20469;-77
2021/07/15 01:59:17;;;;;;;9.27;6.53;;;;;;;15.42;82.42;101074.09;4917228;29;20047;-76
2021/07/15 02:02:03;;;;;;;11.48;7.80;;;;;;;15.33;84.25;101074.00;4906921;29;20492;-76
2021/07/15 02:04:49;;;;;;;10.30;7.30;;;;;;;15.35;84.42;101073.69;4903493;29;20074;-76
2021/07/15 02:07:35;;;;;;;15.10;8.82;;;;;;;15.32;84.80;101071.50;4916467;29;20040;-76
2021/07/15 02:10:23;;;;;;;9.93;7.07;;;;;;;15.38;83.69;101084.28;4903586;29;20039;-76
2021/07/15 02:13:09;;;;;;;12.00;7.10;;;;;;;15.40;83.49;101080.00;4928235;29;20567;-76
2021/07/15 02:15:54;;;;;;;20.63;10.80;;;;;;;15.34;85.98;101070.06;4892080;29;20032;-76
2021/07/15 02:18:40;;;;;;;13.77;8.70;;;;;;;15.38;83.71;101079.50;4913931;29;20055;-76
2021/07/15 02:21:27;;;;;;;12.23;7.15;;;;;;;15.42;83.53;101088.09;4917837;29;20046;-76
2021/07/15 02:24:14;;;;;;;16.50;7.80;;;;;;;15.47;83.43;101078.75;4904173;29;20075;-76
2021/07/15 02:27:01;;;;;;;15.77;8.95;;;;;;;15.45;85.02;101087.47;4904447;29;20036;-76
2021/07/15 02:29:47;;;;;;;13.35;9.07;;;;;;;15.41;85.93;101092.88;4902935;29;20043;-76
2021/07/15 02:32:33;;;;;;;12.07;7.18;;;;;;;15.46;83.23;101088.28;4928651;29;20039;-76
2021/07/15 02:35:19;;;;;;;11.00;7.63;;;;;;;15.48;82.84;101091.59;4917930;29;20070;-76
2021/07/15 02:38:05;;;;;;;14.68;8.93;;;;;;;15.41;85.03;101092.88;4914394;29;20067;-76
2021/07/15 02:40:52;;;;;;;19.77;11.90;;;;;;;15.32;88.20;101083.56;4919103;29;20080;-76
2021/07/15 02:43:37;;;;;;;14.00;8.18;;;;;;;15.38;86.21;101084.28;4917942;29;20091;-76
2021/07/15 02:46:23;;;;;;;14.68;8.10;;;;;;;15.44;84.04;101085.81;4913860;29;20119;-76
2021/07/15 02:49:09;;;;;;;12.45;6.85;;;;;;;15.50;83.44;101072.53;4928594;28;20091;-76
2021/07/15 02:51:55;;;;;;;11.43;7.75;;;;;;;15.51;83.06;101068.59;4921678;29;20046;-76
2021/07/15 02:54:40;;;;;;;15.32;8.73;;;;;;;15.50;84.60;101066.94;4918018;29;20036;-76
2021/07/15 02:57:35;;;;;;;13.77;7.68;;;;;;;15.47;83.82;101064.78;4898817;29;20051;-76
2021/07/15 03:00:21;;;;;;;13.75;8.25;;;;;;;15.50;83.59;101058.53;4894975;29;20047;-76
2021/07/15 03:03:21;;;;;;;18.33;10.40;;;;;;;15.47;86.34;101062.78;4914146;29;20103;-77
2021/07/15 03:06:12;;;;;;;16.60;10.13;;;;;;;15.40;85.59;101054.81;4929389;29;20051;-76
2021/07/15 03:09:00;;;;;;;12.90;8.15;;;;;;;15.46;84.16;101060.28;4919716;29;20488;-76
2021/07/15 03:11:56;;;;;;;21.15;11.38;;;;;;;15.41;87.08;101061.25;4909841;29;20745;-76
2021/07/15 03:14:43;;;;;;;14.93;8.20;;;;;;;15.45;83.96;101058.66;4905685;29;20043;-76
2021/07/15 03:17:34;;;;;;;12.75;8.45;;;;;;;15.48;83.48;101061.63;4902135;29;20037;-76
2021/07/15 03:20:46;;;;;;;11.75;7.68;;;;;;;15.50;83.40;101055.75;4928184;29;20110;-76
2021/07/15 03:23:32;;;;;;;12.57;8.38;;;;;;;15.47;83.94;101056.38;4916927;29;20094;-77
2021/07/15 03:26:18;;;;;;;14.48;9.38;;;;;;;15.46;85.20;101057.50;4917640;28;20044;-76
2021/07/15 03:29:05;;;;;;;15.23;10.85;;;;;;;15.44;85.78;101054.22;4903444;29;20059;-77
2021/07/15 03:31:53;;;;;;;16.23;8.93;;;;;;;15.46;84.77;101060.28;4908466;29;20138;-77
2021/07/15 03:34:39;;;;;;;10.80;8.55;;;;;;;15.47;84.67;101065.59;4919940;29;20043;-77
2021/07/15 03:37:25;;;;;;;15.43;9.60;;;;;;;15.44;84.47;101065.41;4909330;29;20111;-77
2021/07/15 03:40:12;;;;;;;12.93;10.40;;;;;;;15.40;84.91;101060.41;4912075;29;20040;-76
2021/07/15 03:42:58;;;;;;;13.18;9.07;;;;;;;15.40;84.98;101056.78;4902384;29;20036;-76
2021/07/15 03:45:45;;;;;;;17.27;10.65;;;;;;;15.40;85.33;101062.38;4922464;29;20036;-76
2021/07/15 03:48:31;;;;;;;13.90;9.27;;;;;;;15.44;84.60;101068.19;4915250;29;20055;-76
2021/07/15 03:51:17;;;;;;;13.75;9.23;;;;;;;15.41;85.40;101058.47;4888778;29;20085;-76
2021/07/15 03:54:03;;;;;;;15.52;9.27;;;;;;;15.42;85.00;101066.53;4900334;29;20042;-76
2021/07/15 03:56:48;;;;;;;16.52;10.80;;;;;;;15.36;86.65;101066.97;4912048;29;20032;-76
2021/07/15 03:59:34;;;;;;;17.50;10.52;;;;;;;15.31;86.98;101072.66;4919517;29;20070;-76
2021/07/15 04:02:22;;;;;;;15.18;9.90;;;;;;;15.34;85.62;101072.03;4907951;29;20095;-76
2021/07/15 04:05:09;;;;;;;12.82;8.98;;;;;;;15.34;85.56;101066.44;4906217;29;20036;-76
2021/07/15 04:07:54;;;;;;;14.32;9.80;;;;;;;15.36;85.87;101069.75;4901690;29;20111;-76
2021/07/15 04:10:41;;;;;;;15.82;10.02;;;;;;;15.32;86.64;101077.97;4891007;29;20040;-76
2021/07/15 04:13:27;;;;;;;15.05;10.02;;;;;;;15.33;86.12;101071.22;4912376;29;20044;-76
2021/07/15 04:16:29;;;;;;;15.48;11.13;;;;;;;15.28;87.62;101071.31;4912711;29;20099;-77
2021/07/15 04:19:15;;;;;;;18.95;12.18;;;;;;;15.28;87.91;101073.28;4901232;29;20075;-77
2021/07/15 04:22:03;;;;;;;12.73;9.40;;;;;;;15.30;86.97;101077.44;4907569;29;20393;-77
2021/07/15 04:24:48;;;;;;;15.77;10.88;;;;;;;15.27;87.87;101080.84;4905885;29;20029;-77
2021/07/15 04:27:34;;;;;;;15.52;10.38;;;;;;;15.27;87.11;101080.03;4926930;29;20074;-77
2021/07/15 04:30:20;;;;;;;17.88;10.68;;;;;;;15.23;88.25;101087.38;4890127;29;20405;-77
2021/07/15 04:33:09;;;;;;;14.90;11.02;;;;;;;15.24;87.28;101087.09;4914855;29;20040;-77
2021/07/15 04:35:55;;;;;;;13.02;9.43;;;;;;;15.25;86.86;101085.94;4903525;29;20063;-77
2021/07/15 04:38:41;;;;;;;17.80;10.85;;;;;;;15.26;87.14;101090.38;4912861;29;20045;-78
2021/07/15 04:41:27;;;;;;;14.95;11.60;;;;;;;15.19;89.53;101089.97;4914229;29;20521;-78
2021/07/15 04:44:13;;;;;;;16.08;11.05;;;;;;;15.19;88.91;101092.78;4886577;29;20497;-78
2021/07/15 04:47:03;;;;;;;15.20;10.45;;;;;;;15.21;88.35;101087.72;4912648;29;20051;-77
2021/07/15 04:49:49;;;;;;;17.33;11.95;;;;;;;15.16;89.67;101085.00;4934023;29;20532;-78
2021/07/15 04:52:34;;;;;;;13.48;10.00;;;;;;;15.19;87.99;101087.19;4925330;29;20067;-78
2021/07/15 04:55:20;;;;;;;15.02;10.18;;;;;;;15.22;88.06;101092.16;4907086;29;20992;-77
2021/07/15 04:58:06;;;;;;;13.35;10.30;;;;;;;15.22;88.87;101091.31;4916697;29;20115;-77
2021/07/15 05:00:52;;;;;;;12.52;9.40;;;;;;;15.24;88.15;101081.47;4896449;29;22153;-77
2021/07/15 05:03:38;;;;;;;12.88;10.10;;;;;;;15.24;88.32;101081.47;4913666;29;20111;-77
2021/07/15 05:06:24;;;;;;;15.02;9.32;;;;;;;15.27;87.58;101080.03;4902765;29;20082;-77
2021/07/15 05:09:10;;;;;;;12.95;9.50;;;;;;;15.31;87.56;101087.47;4920867;29;20046;-77
2021/07/15 05:11:56;;;;;;;19.38;10.65;;;;;;;15.32;88.16;101083.56;4929695;29;20043;-77
2021/07/15 05:14:41;;;;;;;12.30;9.43;;;;;;;15.35;87.87;101082.94;4900749;29;20040;-77
2021/07/15 05:17:27;;;;;;;12.02;9.60;;;;;;;15.36;87.81;101092.97;4934772;29;20044;-77
2021/07/15 05:20:13;;;;;;;15.38;9.30;;;;;;;15.40;87.08;101093.16;4913993;29;20039;-77
2021/07/15 05:22:59;;;;;;;15.23;10.65;;;;;;;15.37;88.00;101103.00;4925867;29;20179;-77
2021/07/15 05:25:45;;;;;;;12.52;9.35;;;;;;;15.41;87.45;101097.63;4905974;29;20028;-77
2021/07/15 05:28:30;;;;;;;14.73;10.60;;;;;;;15.45;88.31;101101.47;4929097;29;20048;-77
2021/07/15 05:31:17;;;;;;;16.73;10.38;;;;;;;15.45;88.77;101093.06;4935156;29;20408;-78
2021/07/15 05:34:03;;;;;;;13.32;8.52;;;;;;;15.48;87.18;101091.59;4925950;29;20036;-78
2021/07/15 05:36:49;;;;;;;15.20;9.10;;;;;;;15.50;88.21;101109.75;4910956;29;20082;-78
2021/07/15 05:39:36;;;;;;;14.40;8.75;;;;;;;15.54;87.67;101107.16;4929046;29;20107;-78
2021/07/15 05:42:22;;;;;;;18.10;11.05;;;;;;;15.57;89.22;101112.13;4925056;29;20042;-77
2021/07/15 05:45:08;;;;;;;14.60;10.10;;;;;;;15.58;89.52;101111.00;4915594;29;20115;-77
2021/07/15 05:47:54;;;;;;;12.75;9.68;;;;;;;15.59;88.88;101105.06;4928700;29;20040;-77
2021/07/15 05:50:39;;;;;;;11.35;8.25;;;;;;;15.61;88.43;101107.56;4916013;29;20043;-77
2021/07/15 05:53:25;;;;;;;13.77;8.45;;;;;;;15.67;88.97;101113.88;4904753;29;20087;-77
2021/07/15 05:56:11;;;;;;;13.57;9.10;;;;;;;15.70;89.04;101111.31;4922209;29;20114;-77
2021/07/15 05:58:57;;;;;;;17.80;9.95;;;;;;;15.74;89.65;101106.75;4930452;29;20090;-77
2021/07/15 06:01:43;;;;;;;13.98;9.23;;;;;;;15.77;89.93;101111.72;4929325;29;20034;-77
2021/07/15 06:04:28;;;;;;;12.43;8.00;;;;;;;15.82;88.66;101111.59;4911476;29;20051;-78
2021/07/15 06:07:14;;;;;;;14.05;9.60;;;;;;;15.86;89.94;101112.63;4933814;29;20036;-77
2021/07/15 06:10:00;;;;;;;14.25;8.70;;;;;;;15.93;88.86;101117.78;4932570;29;20039;-77
2021/07/15 06:12:46;;;;;;;13.23;9.02;;;;;;;15.97;89.48;101120.78;4920362;29;20043;-77
2021/07/15 06:15:32;;;;;;;14.23;9.30;;;;;;;15.99;89.48;101124.09;4923743;29;20032;-77
2021/07/15 06:18:17;;;;;;;13.23;8.15;;;;;;;16.05;88.65;101122.84;4937235;28;20036;-77
2021/07/15 06:21:04;;;;;;;16.00;8.90;;;;;;;16.07;89.91;101124.19;4924264;29;20067;-77
2021/07/15 06:23:50;;;;;;;11.82;9.25;;;;;;;16.13;89.34;101116.50;4926455;29;20036;-69
2021/07/15 06:26:36;;;;;;;14.02;8.98;;;;;;;16.18;89.09;101124.75;4925867;29;20040;-70
2021/07/15 06:29:22;;;;;;;12.25;7.70;;;;;;;16.23;88.51;101124.63;4934895;29;20468;-69
2021/07/15 06:32:08;;;;;;;16.67;9.30;;;;;;;16.28;89.31;101126.50;4919662;29;20044;-78
2021/07/15 06:34:54;;;;;;;14.13;8.70;;;;;;;16.34;89.00;101144.84;4908321;29;20032;-77
2021/07/15 06:37:40;;;;;;;12.73;7.72;;;;;;;16.37;88.12;101132.97;4907125;29;20032;-69
2021/07/15 06:40:26;;;;;;;15.20;8.63;;;;;;;16.41;88.56;101136.81;4936867;29;20039;-69
2021/07/15 06:43:12;;;;;;;14.27;8.85;;;;;;;16.46;88.81;101139.47;4913713;29;20035;-69
2021/07/15 06:45:57;;;;;;;15.57;8.32;;;;;;;16.53;87.68;101142.66;4896544;29;20072;-69
2021/07/15 06:48:43;;;;;;;13.40;8.48;;;;;;;16.56;88.10;101146.81;4908594;29;20052;-69
2021/07/15 06:51:29;;;;;;;12.73;8.00;;;;;;;16.60;87.67;101149.81;4900593;29;20140;-69
2021/07/15 06:54:17;;;;;;;10.63;7.22;;;;;;;16.67;87.03;101153.00;4921970;29;20040;-79
2021/07/15 06:57:03;;;;;;;16.02;8.00;;;;;;;16.69;87.33;101143.13;4907592;29;20043;-79
2021/07/15 06:59:49;;;;;;;13.35;7.40;;;;;;;16.70;87.72;101158.78;4909541;29;20043;-77
2021/07/15 07:02:41;;;;;;;12.98;7.00;;;;;;;16.78;86.61;101154.41;4919002;29;20118;-77
2021/07/15 07:05:27;;;;;;;16.98;8.45;;;;;;;16.84;86.97;101155.13;4911152;29;20477;-77
2021/07/15 07:08:13;;;;;;;14.95;8.40;;;;;;;16.87;87.49;101155.28;4912271;29;20080;-77
2021/07/15 07:10:58;;;;;;;16.27;8.23;;;;;;;16.85;86.99;101151.97;4922744;29;20036;-77
2021/07/15 07:13:44;;;;;;;12.07;7.30;;;;;;;16.93;86.34;101156.81;4935442;29;20036;-77
2021/07/15 07:16:30;;;;;;;11.45;6.72;;;;;;;16.97;86.15;101160.66;4909342;29;20036;-77
2021/07/15 07:19:16;;;;;;;16.02;7.40;;;;;;;17.03;86.39;101158.53;4937605;28;20047;-78
2021/07/15 07:22:02;;;;;;;9.88;7.30;;;;;;;17.09;86.02;101162.03;4906915;29;20103;-77
2021/07/15 07:24:48;;;;;;;12.10;7.43;;;;;;;17.11;85.60;101163.34;4923733;29;20099;-77
2021/07/15 07:27:33;;;;;;;12.13;7.53;;;;;;;17.16;85.56;101166.03;4917535;29;20523;-77
2021/07/15 07:30:19;;;;;;;12.35;7.38;;;;;;;17.19;85.09;101165.38;4922627;29;20039;-77
2021/07/15 07:33:05;;;;;;;13.45;6.57;;;;;;;17.26;84.76;101176.13;4922701;29;20119;-77
2021/07/15 07:35:51;;;;;;;10.93;6.97;;;;;;;17.34;84.61;101180.13;4929044;29;20186;-77
2021/07/15 07:38:36;;;;;;;10.27;6.30;;;;;;;17.40;84.27;101173.22;4892287;29;20131;-76
2021/07/15 07:41:22;;;;;;;10.82;6.38;;;;;;;17.46;84.05;101160.69;4919976;29;20550;-80
2021/07/15 07:44:08;;;;;;;12.57;6.70;;;;;;;17.52;83.74;101166.97;4917976;29;20040;-77
2021/07/15 07:46:54;;;;;;;10.85;6.20;;;;;;;17.58;83.39;101158.09;4932293;29;20657;-77
2021/07/15 07:49:40;;;;;;;11.23;6.80;;;;;;;17.59;84.02;101164.53;4908435;29;20566;-77
2021/07/15 07:52:25;;;;;;;10.00;6.88;;;;;;;17.62;83.59;101170.31;4925631;29;20087;-77
2021/07/15 07:55:12;;;;;;;14.15;7.25;;;;;;;17.70;83.86;101173.50;4936728;29;20051;-78
2021/07/15 07:57:57;;;;;;;7.93;6.53;;;;;;;17.74;83.30;101171.69;4907429;29;20047;-75
2021/07/15 08:00:43;;;;;;;11.98;6.40;;;;;;;17.79;83.59;101168.75;4931268;29;20122;-77
2021/07/15 08:03:30;;;;;;;9.85;6.28;;;;;;;17.85;83.14;101162.63;4917057;29;20067;-77
2021/07/15 08:06:16;;;;;;;9.25;6.28;;;;;;;17.91;82.75;101170.91;4927416;29;20035;-77
2021/07/15 08:09:08;;;;;;;8.27;6.20;;;;;;;17.94;82.71;101179.53;4910704;29;20122;-78
2021/07/15 08:11:55;;;;;;;13.02;7.28;;;;;;;18.01;82.38;101174.25;4925744;29;20059;-73
2021/07/15 08:14:41;;;;;;;14.13;7.15;;;;;;;18.04;82.81;101170.78;4906207;29;20461;-75
2021/07/15 08:17:27;;;;;;;9.95;6.63;;;;;;;18.07;82.55;101164.50;4933476;28;20036;-74
2021/07/15 08:20:13;;;;;;;12.02;6.82;;;;;;;18.15;82.11;101170.47;4901773;29;20095;-74
2021/07/15 08:22:59;;;;;;;8.65;6.50;;;;;;;18.22;81.98;101176.41;4916155;29;20044;-74
2021/07/15 08:25:44;;;;;;;9.88;5.53;;;;;;;18.28;81.77;101161.06;4916143;29;20107;-74
2021/07/15 08:28:30;;;;;;;8.68;5.80;;;;;;;18.36;81.32;101160.22;4923119;29;20044;-74
2021/07/15 08:31:16;;;;;;;8.63;5.90;;;;;;;18.44;81.15;101162.22;4923939;29;20039;-71
2021/07/15 08:34:02;;;;;;;9.00;6.22;;;;;;;18.51;81.05;101162.53;4902544;29;20067;-70
2021/07/15 08:36:48;;;;;;;11.20;6.38;;;;;;;18.64;80.48;101160.69;4932117;29;20079;-70
2021/07/15 08:39:33;;;;;;;9.00;5.50;;;;;;;18.73;80.09;101153.06;4921804;29;20118;-70
2021/07/15 08:42:19;;;;;;;10.35;6.38;;;;;;;18.91;80.25;101156.69;4904745;29;20040;-69
2021/07/15 08:45:07;;;;;;;11.48;6.18;;;;;;;18.97;80.05;101162.97;4903808;29;20158;-70
2021/07/15 08:47:53;;;;;;;9.73;5.28;;;;;;;19.07;79.76;101158.97;4902745;29;20544;-70
2021/07/15 08:50:39;;;;;;;7.78;5.03;;;;;;;19.19;79.02;101167.53;4897195;29;20059;-70
2021/07/15 08:53:27;;;;;;;10.82;5.22;;;;;;;19.28;78.55;101162.72;4923767;29;20501;-70
2021/07/15 08:59:17;;;;;;;8.15;4.85;;;;;;;19.47;77.52;101158.66;4925205;29;20063;-70
2021/07/15 09:02:03;;;;;;;9.85;4.97;;;;;;;19.55;77.29;101152.16;4901093;29;20036;-70
2021/07/15 09:04:49;;;;;;;10.40;5.10;;;;;;;19.63;77.25;101156.91;4906856;29;20586;-70
2021/07/15 09:07:38;;;;;;;6.85;4.47;;;;;;;19.73;76.78;101156.56;4921974;29;20122;-70
2021/07/15 09:10:23;;;;;;;8.35;5.18;;;;;;;19.89;76.84;101147.50;4910433;29;20056;-70
2021/07/15 09:13:10;;;;;;;7.20;4.80;;;;;;;20.00;76.37;101154.38;4898771;29;20035;-70
2021/07/15 09:15:56;;;;;;;7.53;4.80;;;;;;;20.12;75.51;101151.66;4917484;29;20051;-71
2021/07/15 09:19:04;;;;;;;6.22;3.88;;;;;;;20.22;75.55;101162.50;4901617;29;20106;-69
2021/07/15 09:21:50;;;;;;;7.85;4.97;;;;;;;20.31;75.07;101163.28;4939698;29;20043;-69
2021/07/15 09:24:40;;;;;;;7.28;4.25;;;;;;;20.44;74.71;101152.03;4903655;29;20024;-69
2021/07/15 09:27:27;;;;;;;7.70;5.35;;;;;;;20.49;74.71;101149.03;4902343;29;20036;-68
2021/07/15 09:30:14;;;;;;;6.05;4.32;;;;;;;20.64;74.18;101150.41;4892039;29;20043;-69
2021/07/15 09:33:04;;;;;;;7.28;4.38;;;;;;;20.75;73.72;101149.63;4900447;29;20035;-69
2021/07/15 09:35:50;;;;;;;6.15;4.15;;;;;;;20.89;73.58;101145.66;4907483;29;20689;-69
2021/07/15 09:38:38;;;;;;;7.85;4.18;;;;;;;21.00;73.04;101141.22;4905415;29;20051;-69
2021/07/15 09:41:24;;;;;;;5.85;3.85;;;;;;;21.14;72.88;101144.53;4915540;29;20528;-69
2021/07/15 09:44:10;;;;;;;6.85;4.60;;;;;;;21.33;71.53;101148.78;4892578;29;20556;-69
2021/07/15 09:46:56;;;;;;;6.15;4.28;;;;;;;21.42;71.71;101143.88;4908063;29;20046;-69
2021/07/15 09:49:41;;;;;;;5.50;4.07;;;;;;;21.60;71.34;101142.47;4900434;29;20103;-69
2021/07/15 09:52:27;;;;;;;6.75;4.03;;;;;;;21.74;71.29;101141.31;4932572;29;20040;-69
2021/07/15 09:55:20;;;;;;;6.38;3.65;;;;;;;21.92;71.18;101137.00;4905797;29;20107;-69
2021/07/15 09:58:07;;;;;;;;;;;;;;;22.08;70.18;101135.09;4906833;29;20044;-69
2021/07/15 10:00:53;;;;;;;3.92;3.38;;;;;;;22.21;69.76;101132.28;4936415;29;19915;-69
2021/07/15 10:03:43;;;;;;;6.15;3.85;;;;;;;22.32;69.47;101135.44;4899262;29;20040;-68
2021/07/15 10:06:45;;;;;;;5.90;3.85;;;;;;;22.43;68.93;101128.91;4908883;29;20465;-68
2021/07/15 10:09:31;;;;;;;7.22;3.40;;;;;;;22.52;68.98;101123.91;4890631;29;20095;-69
2021/07/15 10:12:25;;;;;;;5.95;3.45;;;;;;;22.64;68.57;101123.00;4897055;29;20054;-69
2021/07/15 10:15:12;;;;;;;7.88;3.70;;;;;;;22.76;67.82;101110.78;4919782;29;20043;-68
2021/07/15 10:17:58;;;;;;;6.13;3.40;;;;;;;23.00;67.87;101123.22;4911796;29;20057;-69
2021/07/15 10:20:54;;;;;;;5.05;3.08;;;;;;;23.22;66.88;101131.06;4915761;29;20039;-68
2021/07/15 10:23:42;;;;;;;4.10;3.05;;;;;;;23.41;66.67;101117.00;4902647;29;20043;-69
2021/07/15 10:26:28;;;;;;;4.57;3.03;;;;;;;23.60;66.46;101129.59;4889952;29;20396;-69
2021/07/15 10:29:15;;;;;;;4.28;2.88;;;;;;;23.80;65.67;101119.16;4891124;29;20647;-70
2021/07/15 10:32:01;;;;;;;5.15;3.13;;;;;;;23.95;65.52;101111.78;4903333;29;20043;-72
2021/07/15 10:34:51;;;;;;;4.63;3.10;;;;;;;24.15;64.84;101115.47;4920940;29;20044;-69
2021/07/15 10:37:42;;;;;;;5.32;3.22;;;;;;;24.39;63.98;101111.53;4918347;29;20094;-69
2021/07/15 10:40:28;;;;;;;7.20;3.20;;;;;;;24.58;64.03;101120.06;4911739;29;20043;-68
2021/07/15 10:43:13;;;;;;;4.50;3.10;;;;;;;24.86;62.66;101111.28;4911535;28;20087;-70
2021/07/15 10:46:01;;;;;;;5.72;3.05;;;;;;;25.08;61.80;101118.16;4901221;29;20043;-69
2021/07/15 10:48:48;;;;;;;5.18;2.80;;;;;;;25.24;61.99;101114.38;4910533;29;20088;-69
2021/07/15 10:51:38;;;;;;;5.07;3.00;;;;;;;25.41;61.22;101113.91;4894672;29;20418;-68
2021/07/15 10:54:24;;;;;;;4.85;3.25;;;;;;;25.55;61.34;101105.59;4890850;29;20040;-71
2021/07/15 10:57:10;;;;;;;4.35;2.92;;;;;;;25.66;61.47;101108.59;4890166;29;20054;-65
2021/07/15 11:00:27;;;;;;;5.63;3.15;;;;;;;25.72;59.22;101104.22;4892163;29;20123;-66
2021/07/15 11:03:25;;;;;;;7.57;2.85;;;;;;;25.63;60.30;101110.19;4914025;29;20036;-66
2021/07/15 11:06:11;;;;;;;7.75;3.30;;;;;;;25.50;60.28;101116.47;4915429;29;20078;-67
2021/07/15 11:09:00;;;;;;;9.00;3.78;;;;;;;25.33;60.31;101109.28;4902000;29;20035;-67
2021/07/15 11:11:45;;;;;;;8.48;3.47;;;;;;;25.31;58.88;101103.16;4920439;29;20043;-67
2021/07/15 11:14:37;;;;;;;7.22;3.20;;;;;;;25.29;59.55;101102.72;4907066;29;20055;-67
2021/07/15 11:17:30;;;;;;;3.42;2.63;;;;;;;25.40;59.19;101113.06;4911523;29;20088;-67
2021/07/15 11:20:28;;;;;;;3.78;2.50;;;;;;;25.55;59.21;101108.44;4900580;29;20551;-67
2021/07/15 11:23:20;;;;;;;7.18;3.00;;;;;;;25.54;57.55;101112.47;4910614;29;20047;-67
2021/07/15 11:26:28;;;;;;;3.80;2.78;;;;;;;25.62;57.73;101108.53;4920675;29;20039;-67
2021/07/15 11:29:14;;;;;;;4.78;3.30;;;;;;;25.60;58.87;101110.94;4905182;29;20047;-67
2021/07/15 11:32:00;;;;;;;4.15;2.67;;;;;;;25.74;57.64;101110.34;4916814;29;20108;-68
2021/07/15 11:34:46;;;;;;;3.63;2.90;;;;;;;25.85;58.52;101105.66;4905672;29;20047;-67
2021/07/15 11:37:36;;;;;;;3.45;2.67;;;;;;;26.01;56.89;101118.88;4913275;29;20039;-67
2021/07/15 11:40:48;;;;;;;4.90;2.78;;;;;;;26.10;57.54;101110.88;4899604;29;20050;-67
2021/07/15 11:43:53;;;;;;;3.92;2.75;;;;;;;26.15;56.68;101112.56;4910069;29;20046;-67
2021/07/15 11:46:40;;;;;;;6.35;2.90;;;;;;;26.21;56.37;101111.00;4896571;29;20067;-67
2021/07/15 11:49:26;;;;;;;4.25;2.65;;;;;;;26.29;56.15;101112.75;4903075;29;20055;-68
2021/07/15 11:52:13;;;;;;;4.53;2.83;;;;;;;26.24;57.47;101105.38;4913598;29;20111;-67
2021/07/15 11:55:00;;;;;;;4.22;2.88;;;;;;;26.46;55.12;101100.75;4909987;29;20115;-67
2021/07/15 11:57:45;;;;;;;3.72;2.70;;;;;;;26.56;55.32;101104.16;4885568;29;20135;-67
2021/07/15 12:00:31;;;;;;;6.05;2.47;;;;;;;26.59;54.32;101097.69;4888844;29;20125;-67
2021/07/15 12:03:17;;;;;;;5.18;2.50;;;;;;;26.66;54.43;101100.59;4904947;28;20047;-67
2021/07/15 12:06:12;;;;;;;4.15;2.70;;;;;;;26.69;56.19;101096.97;4916952;29;20520;-67
2021/07/15 12:09:06;;;;;;;5.18;2.70;;;;;;;26.73;54.85;101104.34;4888689;29;20063;-67
2021/07/15 12:11:53;;;;;;;6.40;2.63;;;;;;;26.78;54.88;101106.03;4927395;28;20035;-67
2021/07/15 12:14:40;;;;;;;3.22;2.45;;;;;;;26.91;55.04;101100.84;4886423;29;20051;-67
2021/07/15 12:17:29;;;;;;;4.22;2.33;;;;;;;27.08;55.31;101105.09;4915033;29;20408;-67
2021/07/15 12:20:15;;;;;;;4.88;2.60;;;;;;;27.25;55.08;101098.78;4922714;29;20043;-67
2021/07/15 12:23:01;;;;;;;3.75;2.67;;;;;;;27.32;53.70;101098.81;4923704;29;20065;-67
2021/07/15 12:25:49;;;;;;;3.95;2.30;;;;;;;27.51;52.97;101100.59;4915651;29;20036;-67
2021/07/15 12:28:35;;;;;;;3.95;2.72;;;;;;;27.50;52.24;101101.03;4914117;29;20036;-67
2021/07/15 12:31:21;;;;;;;3.25;2.25;;;;;;;27.52;51.07;101105.09;4902078;29;20034;-67
2021/07/15 12:34:07;;;;;;;5.03;2.17;;;;;;;27.56;51.59;101097.38;4920398;29;20504;-67
2021/07/15 12:36:53;;;;;;;6.30;2.17;;;;;;;27.72;51.70;101093.41;4908617;29;20043;-67
2021/07/15 12:39:39;;;;;;;4.82;2.30;;;;;;;27.69;51.32;101099.91;4910896;29;20051;-68
2021/07/15 12:42:25;;;;;;;4.55;2.30;;;;;;;27.87;50.92;101094.34;4904771;29;20043;-67
2021/07/15 12:45:18;;;;;;;2.78;1.92;;;;;;;27.88;50.66;101098.84;4899162;29;20036;-67
2021/07/15 12:48:05;;;;;;;;;;;;;;;27.78;50.90;101094.69;4903161;29;20051;-67
2021/07/15 12:50:56;;;;;;;2.63;1.95;;;;;;;27.89;50.47;101094.75;4922136;28;19919;-67
2021/07/15 12:53:44;;;;;;;4.18;2.50;;;;;;;27.67;49.98;101093.81;4906949;29;20127;-67
2021/07/15 12:56:30;;;;;;;3.60;1.98;;;;;;;27.84;50.64;101098.81;4913557;29;20051;-67
2021/07/15 12:59:16;;;;;;;4.63;2.42;;;;;;;27.88;51.04;101098.84;4904031;28;20035;-67